SBCZ/CZS METAR and TAF weather

Enter ICAO airport designator
Station Type Date Time Source
SBCZ METAR 2021/10/19 22:00 UTC NOAA

SBCZ 192200Z 15004KT 9999 SCT020 26/24 Q1011


Station Type Date Time Source
SBCZ Decoded METAR 2021/10/19 22:00 UTC NOAA

Cruzeiro Do Sul, Brazil (SBCZ) 07-38S 072-40W
Oct 19, 2021 - 06:00 PM EDT / 2021.10.19 2200 UTC
Wind: from the SSE (150 degrees) at 5 MPH (4 KT):0
Visibility: greater than 7 mile(s):0
Sky conditions: partly cloudy
Temperature: 78 F (26 C)
Dew Point: 75 F (24 C)
Relative Humidity: 88%
Pressure (altimeter): 29.85 in. Hg (1011 hPa)
ob: SBCZ 192200Z 15004KT 9999 SCT020 26/24 Q1011
cycle: 22

Station Type Date Time Source
SBCZ TAF 2021/10/20 06:03 UTC NOAA

TAF TAF SBCZ 200245Z 2006/2106 18005KT 9999 SCT020 TX28/2017Z TN23/2106Z
BECMG 2012/2014 14006KT
BECMG 2018/2021 30005KT TS SCT020 FEW030CB
BECMG 2021/2023 27005KT NSW SCT020
RMK PGW

Example: see airport list